createdAt,value
2022-08-16T00:01:33.836Z,72.30
2022-08-16T00:04:07.435Z,72.29
2022-08-16T00:06:41.829Z,72.25
2022-08-16T00:09:15.879Z,72.45
2022-08-16T00:11:48.618Z,72.50
2022-08-16T00:14:29.221Z,72.38
2022-08-16T00:17:18.326Z,72.34
2022-08-16T00:19:53.435Z,72.22
2022-08-16T00:22:27.940Z,72.22
2022-08-16T00:24:59.709Z,72.51
2022-08-16T00:27:31.367Z,72.68
2022-08-16T00:30:09.244Z,72.56
2022-08-16T00:32:57.014Z,72.28
2022-08-16T00:35:31.535Z,72.19
2022-08-16T00:38:43.604Z,72.41
2022-08-16T00:41:02.974Z,72.58
2022-08-16T00:43:42.399Z,73.08
2022-08-16T00:46:33.262Z,72.90
2022-08-16T00:49:17.512Z,73.13
2022-08-16T00:51:53.755Z,72.99
2022-08-16T00:54:30.664Z,73.09
2022-08-16T00:57:05.660Z,73.21
2022-08-16T00:59:49.348Z,73.28
2022-08-16T01:02:33.104Z,73.43
2022-08-16T01:05:10.709Z,73.65
2022-08-16T01:07:50.978Z,73.98
2022-08-16T01:10:32.062Z,74.23
2022-08-16T01:13:12.145Z,74.60
2022-08-16T01:15:52.885Z,74.09
2022-08-16T01:18:38.966Z,73.52
2022-08-16T01:21:23.110Z,72.94
2022-08-16T01:24:52.963Z,72.89
2022-08-16T01:27:10.220Z,73.30
2022-08-16T01:29:58.691Z,73.30
2022-08-16T01:32:35.870Z,73.01
2022-08-16T01:35:16.709Z,72.94
2022-08-16T01:37:53.126Z,73.14
2022-08-16T01:40:30.025Z,73.26
2022-08-16T01:43:02.677Z,73.35
2022-08-16T01:45:39.782Z,73.33
2022-08-16T01:48:20.005Z,74.05
2022-08-16T01:51:08.944Z,73.65
2022-08-16T01:53:55.159Z,73.49
2022-08-16T01:56:35.859Z,73.28
2022-08-16T01:59:15.915Z,73.44
2022-08-16T02:01:56.273Z,73.16
2022-08-16T02:04:49.567Z,73.21
2022-08-16T02:07:27.523Z,73.43
2022-08-16T02:10:02.897Z,73.52
2022-08-16T02:12:51.083Z,74.06
2022-08-16T02:15:35.316Z,73.95
2022-08-16T02:18:07.771Z,73.81
2022-08-16T02:20:50.389Z,74.49
2022-08-16T02:23:26.200Z,74.76
2022-08-16T02:26:01.467Z,74.27
2022-08-16T02:28:34.957Z,74.83
2022-08-16T02:31:06.776Z,74.85
2022-08-16T02:33:44.526Z,74.80
2022-08-16T02:36:47.673Z,74.96
2022-08-16T02:39:23.019Z,75.10
2022-08-16T02:41:56.243Z,74.54
2022-08-16T02:44:28.522Z,74.70
2022-08-16T02:47:00.541Z,74.82
2022-08-16T02:50:52.406Z,75.18
2022-08-16T02:52:29.404Z,75.74
2022-08-16T02:55:08.085Z,76.08
2022-08-16T02:57:42.310Z,75.54
2022-08-16T03:00:31.976Z,75.42
2022-08-16T03:03:10.564Z,75.16
2022-08-16T03:05:42.730Z,75.30
2022-08-16T03:08:50.736Z,75.69
2022-08-16T03:11:06.650Z,75.39
2022-08-16T03:13:56.504Z,75.08
2022-08-16T03:16:37.705Z,74.62
2022-08-16T03:19:11.153Z,74.46
2022-08-16T03:21:44.028Z,74.35
2022-08-16T03:24:29.397Z,74.15
2022-08-16T03:27:03.219Z,73.89
2022-08-16T03:29:36.226Z,73.64
2022-08-16T03:32:09.861Z,73.47
2022-08-16T03:34:46.437Z,73.85
2022-08-16T03:37:23.710Z,74.12
2022-08-16T03:39:56.226Z,74.26
2022-08-16T03:42:28.965Z,74.10
2022-08-16T03:45:03.973Z,74.62
2022-08-16T03:47:39.345Z,74.72
2022-08-16T03:50:26.192Z,74.96
2022-08-16T03:53:04.248Z,75.29
2022-08-16T03:55:45.787Z,75.52
2022-08-16T03:58:18.207Z,74.98
2022-08-16T04:00:56.837Z,75.48
2022-08-16T04:03:32.709Z,75.36
2022-08-16T04:06:06.281Z,76.12
2022-08-16T04:08:39.632Z,76.75
2022-08-16T04:11:11.645Z,76.18
2022-08-16T04:14:01.618Z,75.68
2022-08-16T04:16:42.642Z,75.28
2022-08-16T04:19:35.358Z,74.87
2022-08-16T04:22:08.529Z,75.47
2022-08-16T04:24:55.224Z,75.24
2022-08-16T04:27:32.022Z,75.01
2022-08-16T04:30:03.944Z,74.82
2022-08-16T04:32:41.739Z,74.80
2022-08-16T04:35:17.506Z,74.47
2022-08-16T04:37:53.783Z,74.29
2022-08-16T04:40:31.765Z,74.18
2022-08-16T04:43:04.009Z,74.01
2022-08-16T04:45:36.985Z,74.01
2022-08-16T04:48:22.121Z,73.72
2022-08-16T04:51:07.941Z,73.59
2022-08-16T04:53:49.538Z,73.62
2022-08-16T04:56:24.052Z,74.44
2022-08-16T04:58:57.791Z,73.97
2022-08-16T05:01:47.713Z,73.74
2022-08-16T05:04:21.976Z,74.07
2022-08-16T05:06:54.068Z,73.86
2022-08-16T05:09:38.505Z,73.84
2022-08-16T05:12:11.484Z,73.69
2022-08-16T05:15:01.550Z,73.66
2022-08-16T05:17:35.009Z,73.43
2022-08-16T05:20:38.448Z,73.32
2022-08-16T05:23:04.897Z,73.06
2022-08-16T05:25:41.233Z,72.81
2022-08-16T05:28:20.812Z,72.37
2022-08-16T05:30:57.505Z,72.29
2022-08-16T05:33:31.473Z,71.97
2022-08-16T05:36:04.078Z,71.69
2022-08-16T05:38:50.806Z,71.56
2022-08-16T05:41:24.436Z,71.39
2022-08-16T05:43:59.132Z,72.23
2022-08-16T05:46:43.596Z,72.03
2022-08-16T05:49:23.380Z,71.88
2022-08-16T05:52:00.106Z,71.59
2022-08-16T05:54:33.605Z,71.37
2022-08-16T05:57:07.868Z,71.72
2022-08-16T05:59:45.487Z,72.23
2022-08-16T06:02:21.753Z,72.91
2022-08-16T06:05:02.110Z,72.03
2022-08-16T06:07:34.420Z,71.29
2022-08-16T06:10:13.183Z,71.11
2022-08-16T06:12:45.164Z,70.79
2022-08-16T06:15:25.270Z,70.55
2022-08-16T06:17:58.885Z,70.26
2022-08-16T06:20:35.161Z,70.20
2022-08-16T06:23:17.832Z,70.22
2022-08-16T06:26:01.148Z,70.25
2022-08-16T06:28:38.453Z,70.18
2022-08-16T06:31:15.469Z,70.14
2022-08-16T06:33:51.775Z,70.47
2022-08-16T06:36:24.586Z,70.73
2022-08-16T06:39:05.048Z,71.16
2022-08-16T06:41:57.046Z,71.23
2022-08-16T06:44:51.080Z,71.55
2022-08-16T06:47:53.450Z,71.65
2022-08-16T06:50:29.905Z,71.69
2022-08-16T06:53:09.556Z,71.59
2022-08-16T06:55:45.968Z,71.19
2022-08-16T06:58:21.963Z,71.21
2022-08-16T07:00:54.929Z,71.50
2022-08-16T07:03:32.639Z,71.40
2022-08-16T07:06:06.066Z,70.91
2022-08-16T07:08:46.792Z,70.27
2022-08-16T07:11:45.651Z,69.86
2022-08-16T07:14:23.832Z,69.91
2022-08-16T07:16:59.582Z,69.82
2022-08-16T07:20:29.389Z,68.90
2022-08-16T07:22:36.661Z,69.02
2022-08-16T07:25:16.980Z,68.50
2022-08-16T07:27:49.537Z,68.48
2022-08-16T07:30:39.174Z,68.35
2022-08-16T07:33:51.220Z,67.84
2022-08-16T07:36:21.644Z,67.32
2022-08-16T07:38:54.753Z,67.10
2022-08-16T07:41:25.441Z,66.90
2022-08-16T07:44:03.264Z,67.26
2022-08-16T07:46:55.547Z,67.48
2022-08-16T07:49:32.461Z,67.34
2022-08-16T07:52:20.102Z,66.92
2022-08-16T07:54:53.315Z,66.70
2022-08-16T07:57:26.411Z,65.86
2022-08-16T07:59:59.468Z,64.80
2022-08-16T08:02:31.529Z,64.77
2022-08-16T08:05:03.690Z,64.66
2022-08-16T08:07:36.778Z,64.72
2022-08-16T08:10:10.906Z,64.05
2022-08-16T08:12:46.615Z,63.45
2022-08-16T08:15:25.329Z,63.25
2022-08-16T08:18:00.688Z,63.31
2022-08-16T08:20:59.428Z,63.26
2022-08-16T08:23:36.444Z,63.27
2022-08-16T08:26:17.655Z,63.26
2022-08-16T08:28:50.132Z,62.43
2022-08-16T08:31:21.127Z,61.03
2022-08-16T08:33:56.768Z,60.55
2022-08-16T08:36:32.918Z,60.94
2022-08-16T08:39:12.560Z,60.81
2022-08-16T08:41:46.452Z,60.69
2022-08-16T08:44:29.107Z,60.49
2022-08-16T08:47:10.987Z,60.20
2022-08-16T08:49:44.479Z,59.66
2022-08-16T08:52:34.315Z,59.81
2022-08-16T08:55:13.026Z,60.10
2022-08-16T08:57:48.315Z,60.13
2022-08-16T09:00:51.643Z,59.49
2022-08-16T09:03:25.901Z,59.82
2022-08-16T09:06:00.691Z,59.71
2022-08-16T09:08:35.078Z,59.85
2022-08-16T09:11:11.374Z,59.60
2022-08-16T09:13:49.505Z,59.30
2022-08-16T09:17:01.403Z,59.10
2022-08-16T09:19:17.801Z,58.66
2022-08-16T09:22:06.175Z,58.27
2022-08-16T09:24:54.148Z,57.98
2022-08-16T09:27:57.029Z,58.03
2022-08-16T09:30:36.240Z,58.02
2022-08-16T09:33:19.910Z,57.76
2022-08-16T09:35:54.496Z,57.16
2022-08-16T09:38:32.230Z,57.00
2022-08-16T09:41:06.724Z,56.57
2022-08-16T09:43:58.838Z,56.12
2022-08-16T09:46:45.785Z,55.59
2022-08-16T09:49:22.105Z,54.85
2022-08-16T09:51:55.597Z,54.61
2022-08-16T09:54:32.410Z,54.39
2022-08-16T09:57:05.709Z,53.92
2022-08-16T09:59:38.733Z,53.42
2022-08-16T10:02:26.761Z,53.19
2022-08-16T10:05:00.277Z,52.35
2022-08-16T10:07:38.278Z,52.47
2022-08-16T10:10:19.087Z,51.98
2022-08-16T10:13:16.244Z,52.47
2022-08-16T10:15:55.833Z,52.07
2022-08-16T10:19:00.121Z,51.16
2022-08-16T10:21:22.642Z,50.31
2022-08-16T10:23:56.164Z,50.27
2022-08-16T10:27:16.843Z,50.89
2022-08-16T10:29:21.293Z,50.92
2022-08-16T10:31:53.569Z,50.64
2022-08-16T10:34:32.187Z,50.53
2022-08-16T10:37:04.858Z,49.42
2022-08-16T10:39:42.150Z,49.44
2022-08-16T10:42:14.555Z,49.56
2022-08-16T10:44:53.736Z,49.31
2022-08-16T10:47:28.153Z,48.58
2022-08-16T10:50:05.297Z,48.58
2022-08-16T10:58:11.469Z,46.58
2022-08-16T11:00:44.233Z,46.04
2022-08-16T11:06:12.237Z,44.16
2022-08-16T11:08:45.746Z,44.23
2022-08-16T11:11:19.857Z,44.03
2022-08-16T11:14:05.853Z,43.72
2022-08-16T11:20:00.680Z,42.72
2022-08-16T11:22:47.269Z,42.01
2022-08-16T11:29:11.892Z,41.01
2022-08-16T11:31:09.325Z,41.49
2022-08-16T11:33:53.113Z,42.07
2022-08-16T11:36:28.212Z,41.85
2022-08-16T11:39:01.628Z,41.67
2022-08-16T11:41:38.213Z,41.23
2022-08-16T11:44:20.568Z,40.53
2022-08-16T11:47:08.004Z,40.01
2022-08-16T11:49:38.228Z,39.66
2022-08-16T11:52:37.563Z,39.49
2022-08-16T11:55:35.620Z,39.32
2022-08-16T11:58:12.562Z,39.38
2022-08-16T12:00:50.994Z,39.37
2022-08-16T12:03:34.769Z,39.12
2022-08-16T12:06:25.401Z,38.93
2022-08-16T12:09:01.856Z,39.20
2022-08-16T12:11:35.318Z,39.51
2022-08-16T12:14:08.107Z,39.51
2022-08-16T12:16:40.083Z,39.69
2022-08-16T12:19:20.860Z,39.64
2022-08-16T12:22:19.816Z,39.33
2022-08-16T12:24:53.372Z,39.31
2022-08-16T12:27:27.105Z,39.66
2022-08-16T12:29:59.197Z,39.61
2022-08-16T12:32:39.466Z,38.86
2022-08-16T12:35:17.378Z,38.36
2022-08-16T12:37:56.699Z,37.90
2022-08-16T12:40:32.517Z,37.58
2022-08-16T12:43:07.252Z,37.05
2022-08-16T12:45:47.598Z,36.77
2022-08-16T12:48:55.237Z,36.99
2022-08-16T12:51:58.343Z,37.65
2022-08-16T12:54:24.873Z,38.13
2022-08-16T12:56:56.198Z,38.02
2022-08-16T12:59:31.171Z,38.10
2022-08-16T13:02:03.192Z,37.82
2022-08-16T13:04:38.411Z,38.00
2022-08-16T13:07:10.104Z,38.35
2022-08-16T13:09:54.502Z,38.70
2022-08-16T13:12:28.193Z,38.20
2022-08-16T13:15:00.075Z,38.04
2022-08-16T13:17:31.868Z,37.69
2022-08-16T13:20:11.181Z,37.12
2022-08-16T13:22:45.889Z,37.06
2022-08-16T13:25:21.785Z,37.07
2022-08-16T13:28:02.533Z,37.19
2022-08-16T13:30:41.233Z,37.33
2022-08-16T13:33:26.015Z,37.49
2022-08-16T13:36:03.126Z,37.26
2022-08-16T13:38:37.720Z,37.20
2022-08-16T13:41:12.424Z,36.51
2022-08-16T13:43:44.468Z,36.82
2022-08-16T13:46:30.562Z,37.03
2022-08-16T13:49:03.368Z,36.63
2022-08-16T13:51:35.232Z,36.64
2022-08-16T13:54:11.182Z,36.49
2022-08-16T13:56:43.039Z,36.71
2022-08-16T13:59:20.303Z,36.51
2022-08-16T14:01:59.625Z,36.19
2022-08-16T14:04:35.318Z,35.69
2022-08-16T14:07:11.546Z,34.77
2022-08-16T14:09:44.265Z,35.09
2022-08-16T14:12:25.349Z,35.24
2022-08-16T14:14:58.946Z,35.45
2022-08-16T14:18:14.857Z,35.01
2022-08-16T14:20:22.174Z,34.46
2022-08-16T14:22:55.620Z,34.50
2022-08-16T14:25:28.035Z,34.78
2022-08-16T14:28:00.530Z,34.94
2022-08-16T14:30:32.847Z,34.44
2022-08-16T14:33:06.354Z,34.79
2022-08-16T14:35:49.047Z,34.26
2022-08-16T14:38:23.830Z,33.86
2022-08-16T14:40:56.447Z,33.58
2022-08-16T14:43:29.854Z,33.55
2022-08-16T14:46:04.606Z,33.44
2022-08-16T14:48:39.533Z,32.61
2022-08-16T14:51:11.731Z,31.81
2022-08-16T14:53:45.363Z,32.13
2022-08-16T14:56:38.611Z,32.06
2022-08-16T14:59:09.178Z,32.36
2022-08-16T15:01:58.761Z,32.33
2022-08-16T15:04:47.919Z,32.28
2022-08-16T15:07:22.709Z,31.81
2022-08-16T15:10:01.643Z,31.78
2022-08-16T15:12:36.223Z,31.72
2022-08-16T15:15:16.475Z,32.09
2022-08-16T15:17:54.553Z,31.83
2022-08-16T15:20:33.249Z,31.49
2022-08-16T15:23:08.405Z,31.51
2022-08-16T15:25:44.407Z,30.75
2022-08-16T15:28:24.017Z,30.91
2022-08-16T15:31:06.285Z,31.06
2022-08-16T15:33:44.391Z,30.95
2022-08-16T15:36:22.180Z,30.64
2022-08-16T15:39:06.833Z,30.73
2022-08-16T15:42:04.815Z,30.54
2022-08-16T15:44:50.972Z,30.61
2022-08-16T15:47:27.381Z,30.87
2022-08-16T15:49:59.516Z,31.13
2022-08-16T15:52:34.623Z,30.66
2022-08-16T15:55:23.977Z,30.88
2022-08-16T15:58:34.892Z,31.02
2022-08-16T16:00:54.534Z,31.33
2022-08-16T16:03:29.090Z,31.56
2022-08-16T16:06:07.849Z,31.60
2022-08-16T16:08:41.504Z,31.84
2022-08-16T16:11:13.713Z,31.52
2022-08-16T16:13:44.227Z,31.42
2022-08-16T16:16:19.856Z,31.59
2022-08-16T16:18:52.910Z,31.50
2022-08-16T16:21:25.769Z,31.37
2022-08-16T16:23:57.903Z,31.12
2022-08-16T16:26:33.323Z,30.96
2022-08-16T16:29:10.718Z,31.65
2022-08-16T16:31:51.380Z,30.71
2022-08-16T16:34:35.209Z,30.44
2022-08-16T16:37:09.445Z,30.34
2022-08-16T16:39:42.251Z,30.46
2022-08-16T16:42:29.410Z,30.83
2022-08-16T16:45:03.182Z,31.25
2022-08-16T16:47:56.173Z,32.02
2022-08-16T16:50:29.276Z,32.54
2022-08-16T16:53:01.807Z,33.02
2022-08-16T16:55:52.217Z,33.84
2022-08-16T16:58:43.414Z,34.43
2022-08-16T17:01:15.925Z,34.54
2022-08-16T17:03:53.739Z,35.05
2022-08-16T17:06:25.754Z,35.22
2022-08-16T17:08:57.737Z,35.68
2022-08-16T17:11:30.979Z,35.14
2022-08-16T17:14:31.947Z,35.11
2022-08-16T17:17:01.520Z,35.06
2022-08-16T17:19:34.199Z,35.92
2022-08-16T17:22:15.580Z,35.95
2022-08-16T17:24:52.430Z,36.44
2022-08-16T17:27:33.718Z,36.22
2022-08-16T17:30:15.022Z,36.52
2022-08-16T17:32:54.620Z,36.72
2022-08-16T17:35:34.233Z,38.00
2022-08-16T17:38:09.482Z,37.91
2022-08-16T17:40:51.984Z,38.95
2022-08-16T17:43:33.482Z,38.60
2022-08-16T17:46:06.569Z,39.08
2022-08-16T17:48:58.208Z,39.47
2022-08-16T17:51:29.868Z,40.28
2022-08-16T17:54:03.443Z,40.53
2022-08-16T17:56:35.129Z,40.76
2022-08-16T17:59:07.135Z,41.13
2022-08-16T18:01:38.917Z,41.53
2022-08-16T18:04:12.974Z,41.88
2022-08-16T18:07:05.369Z,42.35
2022-08-16T18:09:41.892Z,42.78
2022-08-16T18:12:54.278Z,42.95
2022-08-16T18:15:16.918Z,43.23
2022-08-16T18:17:49.969Z,43.51
2022-08-16T18:20:41.336Z,43.81
2022-08-16T18:23:15.649Z,44.07
2022-08-16T18:25:57.613Z,44.21
2022-08-16T18:28:31.236Z,44.36
2022-08-16T18:31:03.775Z,44.50
2022-08-16T18:33:43.866Z,43.87
2022-08-16T18:36:21.136Z,44.14
2022-08-16T18:38:54.982Z,45.01
2022-08-16T18:41:27.824Z,45.41
2022-08-16T18:44:25.209Z,46.01
2022-08-16T18:46:51.987Z,46.50
2022-08-16T18:49:24.228Z,47.14
2022-08-16T18:52:00.593Z,47.20
2022-08-16T18:55:02.081Z,47.64
2022-08-16T18:57:26.059Z,47.92
2022-08-16T18:59:57.818Z,48.22
2022-08-16T19:02:57.644Z,48.26
2022-08-16T19:05:26.649Z,48.54
2022-08-16T19:07:58.798Z,48.67
2022-08-16T19:10:29.334Z,48.83
2022-08-16T19:13:05.730Z,48.93
2022-08-16T19:15:38.818Z,49.39
2022-08-16T19:18:11.698Z,49.67
2022-08-16T19:20:47.113Z,49.79
2022-08-16T19:23:21.877Z,49.86
2022-08-16T19:25:56.861Z,50.16
2022-08-16T19:28:50.917Z,50.49
2022-08-16T19:31:24.968Z,50.62
2022-08-16T19:33:59.215Z,50.84
2022-08-16T19:36:35.869Z,50.78
2022-08-16T19:39:11.063Z,50.80
2022-08-16T19:41:53.259Z,51.14
2022-08-16T19:44:27.858Z,51.44
2022-08-16T19:46:59.678Z,51.52
2022-08-16T19:49:31.469Z,51.80
2022-08-16T19:52:12.008Z,52.07
2022-08-16T19:54:44.578Z,52.35
2022-08-16T19:57:17.626Z,52.50
2022-08-16T19:59:49.807Z,52.62
2022-08-16T20:02:35.629Z,52.94
2022-08-16T20:05:08.848Z,53.06
2022-08-16T20:07:39.034Z,53.30
2022-08-16T20:10:15.870Z,53.74
2022-08-16T20:12:58.325Z,54.11
2022-08-16T20:15:35.892Z,54.09
2022-08-16T20:18:25.080Z,53.83
2022-08-16T20:20:57.832Z,53.95
2022-08-16T20:23:29.703Z,53.89
2022-08-16T20:26:01.437Z,54.10
2022-08-16T20:28:51.670Z,54.18
2022-08-16T20:31:26.005Z,54.41
2022-08-16T20:33:57.708Z,54.57
2022-08-16T20:36:29.998Z,54.60
2022-08-16T20:39:04.667Z,54.76
2022-08-16T20:41:37.374Z,55.00
2022-08-16T20:44:10.820Z,55.62
2022-08-16T20:46:42.555Z,55.34
2022-08-16T20:49:14.558Z,55.53
2022-08-16T20:51:49.740Z,56.02
2022-08-16T20:54:24.073Z,56.21
2022-08-16T20:56:55.830Z,56.46
2022-08-16T20:59:27.746Z,56.29
2022-08-16T21:02:00.092Z,56.36
2022-08-16T21:04:32.205Z,56.42
2022-08-16T21:07:04.236Z,56.68
2022-08-16T21:09:37.720Z,56.57
2022-08-16T21:12:17.901Z,56.76
2022-08-16T21:14:50.305Z,57.07
2022-08-16T21:17:24.812Z,57.35
2022-08-16T21:19:56.539Z,57.29
2022-08-16T21:22:28.779Z,57.41
2022-08-16T21:25:00.985Z,57.42
2022-08-16T21:27:32.629Z,58.35
2022-08-16T21:30:08.229Z,59.22
2022-08-16T21:32:44.040Z,59.01
2022-08-16T21:35:15.355Z,58.92
2022-08-16T21:38:00.999Z,59.45
2022-08-16T21:40:41.194Z,59.77
2022-08-16T21:43:14.811Z,60.08
2022-08-16T21:45:48.162Z,60.18
2022-08-16T21:48:33.580Z,59.89
2022-08-16T21:51:14.358Z,60.25
2022-08-16T21:53:46.334Z,60.01
2022-08-16T21:56:18.433Z,60.04
2022-08-16T21:58:53.219Z,59.88
2022-08-16T22:01:26.472Z,59.99
2022-08-16T22:04:36.921Z,59.98
2022-08-16T22:06:49.942Z,60.85
2022-08-16T22:09:21.845Z,60.82
2022-08-16T22:11:53.634Z,60.86
2022-08-16T22:14:25.304Z,60.40
2022-08-16T22:16:57.056Z,60.39
2022-08-16T22:19:28.653Z,61.01
2022-08-16T22:22:05.179Z,62.17
2022-08-16T22:24:36.955Z,62.48
2022-08-16T22:27:09.207Z,61.67
2022-08-16T22:29:42.303Z,62.06
2022-08-16T22:32:14.402Z,62.41
2022-08-16T22:34:45.995Z,62.49
2022-08-16T22:37:17.874Z,62.15
2022-08-16T22:39:49.662Z,62.04
2022-08-16T22:42:23.120Z,62.51
2022-08-16T22:44:55.405Z,62.61
2022-08-16T22:47:27.291Z,62.66
2022-08-16T22:49:58.920Z,62.68
2022-08-16T22:52:44.308Z,62.62
2022-08-16T22:55:25.940Z,62.39
2022-08-16T22:57:58.584Z,62.18
2022-08-16T23:00:33.487Z,61.98
2022-08-16T23:03:07.953Z,62.06
2022-08-16T23:05:43.280Z,62.62
2022-08-16T23:08:39.510Z,63.54
2022-08-16T23:11:12.544Z,64.27
2022-08-16T23:13:52.933Z,64.08
2022-08-16T23:16:33.173Z,64.53
2022-08-16T23:19:09.094Z,63.82
2022-08-16T23:21:44.236Z,63.24
2022-08-16T23:24:19.317Z,62.94
2022-08-16T23:26:51.594Z,63.46
2022-08-16T23:29:26.489Z,64.09
2022-08-16T23:32:09.757Z,64.69
2022-08-16T23:34:41.648Z,65.41
2022-08-16T23:37:13.262Z,65.57
2022-08-16T23:39:44.958Z,65.42
2022-08-16T23:42:52.296Z,66.42
2022-08-16T23:45:10.434Z,66.18
2022-08-16T23:47:42.185Z,66.14
2022-08-16T23:50:14.269Z,65.43
2022-08-16T23:53:04.659Z,65.08
2022-08-16T23:55:42.104Z,65.09
2022-08-16T23:58:16.749Z,65.08
